createdAt,value
2022-07-29T00:01:07.071Z,70.75
2022-07-29T00:03:46.640Z,69.87
2022-07-29T00:06:14.132Z,69.74
2022-07-29T00:08:42.462Z,67.88
2022-07-29T00:11:10.110Z,67.96
2022-07-29T00:13:37.765Z,67.55
2022-07-29T00:16:05.449Z,67.27
2022-07-29T00:18:33.368Z,67.15
2022-07-29T00:21:01.032Z,66.64
2022-07-29T00:23:29.229Z,66.80
2022-07-29T00:25:57.277Z,66.14
2022-07-29T00:28:24.859Z,66.02
2022-07-29T00:30:54.220Z,65.46
2022-07-29T00:33:21.868Z,65.78
2022-07-29T00:35:49.251Z,66.02
2022-07-29T00:38:19.426Z,65.77
2022-07-29T00:40:48.201Z,65.66
2022-07-29T00:43:19.218Z,65.63
2022-07-29T00:45:47.662Z,65.30
2022-07-29T00:48:15.115Z,65.55
2022-07-29T00:50:43.607Z,65.92
2022-07-29T00:53:13.266Z,65.08
2022-07-29T00:55:40.814Z,65.49
2022-07-29T00:58:08.481Z,65.21
2022-07-29T01:00:36.109Z,65.47
2022-07-29T01:03:04.603Z,65.34
2022-07-29T01:05:50.244Z,66.02
2022-07-29T01:08:21.535Z,67.25
2022-07-29T01:10:52.898Z,67.45
2022-07-29T01:13:20.457Z,68.71
2022-07-29T01:15:55.842Z,68.91
2022-07-29T01:18:39.094Z,70.11
2022-07-29T01:21:34.601Z,70.49
2022-07-29T01:24:20.704Z,70.03
2022-07-29T01:27:00.896Z,71.76
2022-07-29T01:29:42.782Z,71.56
2022-07-29T01:32:28.302Z,71.24
2022-07-29T01:35:20.413Z,72.39
2022-07-29T01:37:58.655Z,71.48
2022-07-29T01:40:50.545Z,72.25
2022-07-29T01:43:25.278Z,71.91
2022-07-29T01:46:01.642Z,72.54
2022-07-29T01:48:53.274Z,73.54
2022-07-29T01:51:28.526Z,73.76
2022-07-29T01:54:06.651Z,73.08
2022-07-29T01:56:36.527Z,73.04
2022-07-29T01:59:07.980Z,73.30
2022-07-29T02:01:36.117Z,74.56
2022-07-29T02:04:06.588Z,73.57
2022-07-29T02:06:37.034Z,73.64
2022-07-29T02:09:13.878Z,74.91
2022-07-29T02:11:46.543Z,74.87
2022-07-29T02:14:19.484Z,75.34
2022-07-29T02:16:51.086Z,74.92
2022-07-29T02:19:20.893Z,74.63
2022-07-29T02:21:50.832Z,74.40
2022-07-29T02:24:20.218Z,74.63
2022-07-29T02:26:49.363Z,74.87
2022-07-29T02:29:18.043Z,75.30
2022-07-29T02:31:49.092Z,73.87
2022-07-29T02:34:25.464Z,74.24
2022-07-29T02:36:55.554Z,73.89
2022-07-29T02:39:25.658Z,74.00
2022-07-29T02:42:43.325Z,74.41
2022-07-29T02:45:13.512Z,74.19
2022-07-29T02:47:51.035Z,74.54
2022-07-29T02:50:34.083Z,74.87
2022-07-29T02:53:14.172Z,75.17
2022-07-29T02:55:52.921Z,75.75
2022-07-29T02:58:29.800Z,75.36
2022-07-29T03:01:06.461Z,75.73
2022-07-29T03:03:41.069Z,75.73
2022-07-29T03:06:30.926Z,75.19
2022-07-29T03:09:01.567Z,75.38
2022-07-29T03:11:42.310Z,75.57
2022-07-29T03:14:22.044Z,75.14
2022-07-29T03:16:50.725Z,75.21
2022-07-29T03:19:19.307Z,74.90
2022-07-29T03:21:51.053Z,74.64
2022-07-29T03:24:49.428Z,74.99
2022-07-29T03:27:20.017Z,74.51
2022-07-29T03:29:50.701Z,74.19
2022-07-29T03:32:23.773Z,73.61
2022-07-29T03:34:54.504Z,73.48
2022-07-29T03:37:21.832Z,72.97
2022-07-29T03:39:52.795Z,72.34
2022-07-29T03:42:25.429Z,72.25
2022-07-29T03:46:02.386Z,71.93
2022-07-29T03:49:02.822Z,72.12
2022-07-29T03:51:38.196Z,71.08
2022-07-29T03:54:10.092Z,70.41
2022-07-29T03:56:53.680Z,69.20
2022-07-29T04:00:07.967Z,67.87
2022-07-29T04:02:38.047Z,68.00
2022-07-29T04:05:41.208Z,68.16
2022-07-29T04:12:51.391Z,68.13
2022-07-29T04:15:35.738Z,68.79
2022-07-29T04:18:14.878Z,68.27
2022-07-29T04:20:50.970Z,68.32
2022-07-29T04:23:53.838Z,67.66
2022-07-29T04:26:37.365Z,66.51
2022-07-29T04:29:29.625Z,66.33
2022-07-29T04:32:06.880Z,65.86
2022-07-29T04:34:36.982Z,66.79
2022-07-29T04:37:30.538Z,66.37
2022-07-29T04:43:06.105Z,65.50
2022-07-29T04:45:37.438Z,65.26
2022-07-29T04:48:09.992Z,64.96
2022-07-29T04:51:01.579Z,64.21
2022-07-29T04:56:51.557Z,64.12
2022-07-29T04:59:19.288Z,64.02
2022-07-29T05:02:55.074Z,64.44
2022-07-29T05:06:04.577Z,63.66
2022-07-29T05:10:00.455Z,63.98
2022-07-29T05:13:06.261Z,63.34
2022-07-29T05:16:13.843Z,63.93
2022-07-29T05:20:41.454Z,62.95
2022-07-29T05:23:00.524Z,62.96
2022-07-29T05:26:10.963Z,63.08
2022-07-29T05:28:49.157Z,62.83
2022-07-29T05:31:46.941Z,61.80
2022-07-29T05:35:35.738Z,61.66
2022-07-29T05:38:23.840Z,57.97
2022-07-29T05:41:10.906Z,57.97
2022-07-29T05:43:38.993Z,56.06
2022-07-29T05:46:19.441Z,54.18
2022-07-29T05:49:28.400Z,52.97
2022-07-29T05:53:19.683Z,48.23
2022-07-29T06:02:52.928Z,46.61
2022-07-29T06:22:22.950Z,40.33
2022-07-29T06:25:06.267Z,39.54
2022-07-29T06:28:40.307Z,39.85
2022-07-29T06:35:38.296Z,37.30
2022-07-29T06:38:31.516Z,38.22
2022-07-29T06:41:41.664Z,35.64
2022-07-29T06:44:36.886Z,37.01
2022-07-29T06:50:03.485Z,38.31
2022-07-29T06:52:44.131Z,36.67
2022-07-29T06:55:36.456Z,34.26
2022-07-29T06:58:16.321Z,34.86
2022-07-29T07:01:06.114Z,35.73
2022-07-29T07:04:03.315Z,35.29
2022-07-29T07:06:48.822Z,34.62
2022-07-29T07:09:41.977Z,34.43
2022-07-29T07:12:23.232Z,34.29
2022-07-29T07:14:58.668Z,32.94
2022-07-29T07:17:41.244Z,32.04
2022-07-29T07:20:14.489Z,31.94
2022-07-29T07:23:11.671Z,33.64
2022-07-29T07:26:01.053Z,34.45
2022-07-29T07:28:47.453Z,33.00
2022-07-29T07:31:45.235Z,31.50
2022-07-29T07:34:45.287Z,31.42
2022-07-29T07:37:21.980Z,32.28
2022-07-29T07:39:49.348Z,32.04
2022-07-29T07:42:18.296Z,32.05
2022-07-29T07:48:46.745Z,31.36
2022-07-29T07:51:58.313Z,30.63
2022-07-29T14:54:15.066Z,37.19
2022-07-29T15:21:22.579Z,38.37
2022-07-29T15:46:17.061Z,39.20
2022-07-29T18:16:45.542Z,53.30
2022-07-29T18:21:42.742Z,53.35
2022-07-29T18:31:09.825Z,53.03
2022-07-29T19:06:43.832Z,54.79
2022-07-29T19:13:00.917Z,54.80
2022-07-29T19:16:04.278Z,54.00
2022-07-29T19:19:42.800Z,54.90
2022-07-29T19:23:27.868Z,54.57
2022-07-29T19:25:53.114Z,54.50
2022-07-29T19:28:27.620Z,54.67
2022-07-29T19:31:02.784Z,54.57
2022-07-29T19:33:49.279Z,55.28
2022-07-29T19:36:40.575Z,54.79
2022-07-29T19:39:09.183Z,55.14
2022-07-29T19:41:37.165Z,55.41
2022-07-29T19:44:09.259Z,55.54
2022-07-29T19:46:38.642Z,55.94
2022-07-29T19:49:06.926Z,55.77
2022-07-29T19:51:39.759Z,56.63
2022-07-29T19:54:07.614Z,56.94
2022-07-29T19:56:46.995Z,57.05
2022-07-29T19:59:15.485Z,57.32
2022-07-29T20:01:44.961Z,57.86
2022-07-29T20:04:16.995Z,57.90
2022-07-29T20:06:45.591Z,58.52
2022-07-29T20:09:17.086Z,58.45
2022-07-29T20:11:52.599Z,58.75
2022-07-29T20:14:24.178Z,58.68
2022-07-29T20:16:57.009Z,58.92
2022-07-29T20:19:32.143Z,59.27
2022-07-29T20:22:08.340Z,59.23
2022-07-29T20:24:36.725Z,59.24
2022-07-29T20:27:13.584Z,59.36
2022-07-29T20:29:41.462Z,59.43
2022-07-29T20:32:13.625Z,59.60
2022-07-29T20:35:03.018Z,59.78
2022-07-29T20:37:33.600Z,60.01
2022-07-29T20:40:20.322Z,60.20
2022-07-29T20:42:51.699Z,59.95
2022-07-29T20:45:21.479Z,60.56
2022-07-29T20:47:52.007Z,60.55
2022-07-29T20:50:24.226Z,60.86
2022-07-29T20:52:57.097Z,61.69
2022-07-29T20:58:08.952Z,61.52
2022-07-29T21:00:37.139Z,61.69
2022-07-29T21:03:09.803Z,61.64
2022-07-29T21:05:40.854Z,61.78
2022-07-29T21:08:19.695Z,62.12
2022-07-29T21:10:52.383Z,62.22
2022-07-29T21:13:23.719Z,62.56
2022-07-29T21:16:03.466Z,62.85
2022-07-29T21:18:37.776Z,63.32
2022-07-29T21:21:06.142Z,62.87
2022-07-29T21:23:59.825Z,63.97
2022-07-29T21:26:29.447Z,62.80
2022-07-29T21:28:56.668Z,62.75
2022-07-29T21:31:24.335Z,62.70
2022-07-29T21:35:19.162Z,62.75
2022-07-29T21:37:55.732Z,61.95
2022-07-29T21:40:26.010Z,62.02
2022-07-29T21:43:12.005Z,62.07
2022-07-29T21:45:46.430Z,61.69
2022-07-29T21:48:17.514Z,61.65
2022-07-29T21:50:45.918Z,62.08
2022-07-29T21:53:19.699Z,61.65
2022-07-29T21:55:55.531Z,61.35
2022-07-29T21:58:33.877Z,60.90
2022-07-29T22:01:02.070Z,60.92
2022-07-29T22:03:32.721Z,60.74
2022-07-29T22:06:02.535Z,60.89
2022-07-29T22:08:35.003Z,60.71
2022-07-29T22:11:05.430Z,61.09
2022-07-29T22:13:36.979Z,60.83
2022-07-29T22:16:34.903Z,61.29
2022-07-29T22:19:04.275Z,60.96
2022-07-29T22:21:34.938Z,60.72
2022-07-29T22:24:06.738Z,60.76
2022-07-29T22:26:38.859Z,61.13
2022-07-29T22:29:06.817Z,61.24
2022-07-29T22:31:41.764Z,62.27
2022-07-29T22:34:12.970Z,60.70
2022-07-29T22:36:41.325Z,59.86
2022-07-29T22:39:15.665Z,59.33
2022-07-29T22:41:43.614Z,59.27
2022-07-29T22:44:11.587Z,59.08
2022-07-29T22:46:39.952Z,58.82
2022-07-29T22:49:07.437Z,58.87
2022-07-29T22:51:37.561Z,58.68
2022-07-29T22:54:05.460Z,58.75
2022-07-29T22:56:33.986Z,58.65
2022-07-29T22:59:01.398Z,58.27
2022-07-29T23:01:38.014Z,58.58
2022-07-29T23:04:07.259Z,58.30
2022-07-29T23:06:35.867Z,58.46
2022-07-29T23:09:06.065Z,58.31
2022-07-29T23:11:33.998Z,58.09
2022-07-29T23:14:01.705Z,58.13
2022-07-29T23:16:29.608Z,57.85
2022-07-29T23:18:57.476Z,57.37
2022-07-29T23:21:28.030Z,57.09
2022-07-29T23:23:59.630Z,57.20
2022-07-29T23:26:32.746Z,57.46
2022-07-29T23:29:03.130Z,57.65
2022-07-29T23:31:32.171Z,57.61
2022-07-29T23:34:09.487Z,57.95
2022-07-29T23:36:38.094Z,57.99
2022-07-29T23:39:07.443Z,57.66
2022-07-29T23:41:38.748Z,57.70
2022-07-29T23:44:06.149Z,58.45
2022-07-29T23:46:36.221Z,58.05
2022-07-29T23:49:06.194Z,58.44
2022-07-29T23:51:35.979Z,58.80
2022-07-29T23:54:03.471Z,58.72
2022-07-29T23:56:36.952Z,58.55
2022-07-29T23:59:05.927Z,58.92
